Latest Weather Observations for Temora

IDN60801

Issued at 11:32 pm EST Sunday 21 July 2019 (issued every 10 minutes, with the page automatically refreshed every 10 minutes)

About weather observations | Map of weather stations | Latest weather observations for NSW | Other Formats
Station Details ID: 073151 Name: TEMORA AIRPORT Lat: -34.43 Lon: 147.51 Height: 280.5 m
Data from the previous 72 hours. | See also: Recent months at Temora
Date/Time
EST
Temp
°C
App
Temp
°C
Dew
Point
°C
Rel
Hum
%
Delta-T
°C
Wind Press
QNH
hPa
Press
MSL
hPa
Rain since
9am
mm
Dir  Spd
km/h
Gust
km/h
Spd
kts
Gust
kts
21/11:30pm 4.9 3.5 3.6 91 0.5 CALM 0 0 0 0 1015.9 1016.4 0.0
21/11:00pm 4.3 1.6 2.5 88 0.7 SSW 6 7 3 4 1016.0 1016.5 0.0
21/10:30pm 5.7 2.9 2.9 82 1.2 S 7 7 4 4 1015.9 1016.4 0.0
21/10:00pm 5.9 3.2 3.7 86 0.9 WNW 7 11 4 6 1016.0 1016.5 0.0
21/09:30pm 8.4 5.9 5.0 79 1.5 E 7 9 4 5 1015.7 1016.2 0.0
21/09:00pm 8.1 5.2 4.7 79 1.5 S 9 11 5 6 1015.9 1016.4 0.0
21/08:30pm 8.1 4.8 4.3 77 1.7 SSW 11 13 6 7 1015.8 1016.3 0.0
21/08:00pm 9.1 5.5 4.9 75 1.9 SW 13 20 7 11 1015.5 1016.0 0.0
21/07:30pm 10.2 8.0 5.2 71 2.3 SE 6 9 3 5 1015.0 1015.4 0.0
21/07:00pm 9.7 7.3 5.1 73 2.1 SSW 7 11 4 6 1014.9 1015.3 0.0
21/06:30pm 10.1 7.6 4.5 68 2.5 S 7 9 4 5 1014.5 1015.0 0.0
21/06:00pm 12.5 10.1 4.5 58 3.7 NE 6 7 3 4 1014.3 1014.8 0.0
21/05:30pm 13.4 11.1 4.6 55 4.1 NNE 6 7 3 4 1013.9 1014.4 0.0
21/05:00pm 14.6 11.8 5.1 53 4.5 N 9 11 5 6 1013.8 1014.3 0.0
21/04:30pm 16.0 12.6 4.1 45 5.6 NNE 11 13 6 7 1013.8 1014.3 0.0
21/04:00pm 16.1 12.4 4.2 45 5.6 N 13 15 7 8 1013.7 1014.2 0.0
21/03:30pm 18.3 13.3 3.4 37 7.1 NNW 19 26 10 14 1013.9 1014.4 0.0
21/03:00pm 17.4 12.6 4.7 43 6.1 N 19 24 10 13 1013.9 1014.4 0.0
21/02:30pm 17.2 13.1 4.5 43 6.1 NNE 15 20 8 11 1013.9 1014.4 0.0
21/02:00pm 17.3 12.9 4.6 43 6.1 N 17 22 9 12 1014.1 1014.6 0.0
21/01:30pm 17.2 12.6 3.8 41 6.3 N 17 24 9 13 1014.5 1015.0 0.0
21/01:00pm 16.9 11.9 3.6 41 6.3 N 19 24 10 13 1015.0 1015.4 0.0
21/12:30pm 16.9 12.0 3.9 42 6.2 NNE 19 24 10 13 1015.4 1015.9 0.0
21/12:00pm 15.8 10.8 4.5 47 5.4 NNE 20 24 11 13 1016.0 1016.5 0.0
21/11:30am 14.8 10.0 4.5 50 4.9 NNE 19 22 10 12 1016.6 1017.1 0.0
21/11:00am 13.2 8.2 3.6 52 4.4 NNE 19 24 10 13 1017.1 1017.6 0.0
21/10:30am 12.3 7.1 3.3 54 4.1 NNE 20 26 11 14 1017.5 1018.0 0.0
21/10:00am 11.6 5.9 3.1 56 3.8 NNE 22 28 12 15 1017.8 1018.3 0.0
21/09:30am 10.7 5.6 3.0 59 3.4 NNE 19 26 10 14 1018.1 1018.6 0.0
21/09:00am 9.2 6.0 2.8 64 2.8 NE 9 11 5 6 1018.3 1018.9 0.0
21/08:30am 7.8 4.4 2.1 67 2.4 ENE 9 11 5 6 1018.2 1018.8 0.0
21/08:00am 5.2 2.3 1.5 77 1.5 E 6 7 3 4 1017.9 1018.4 0.0
21/07:30am 4.1 0.6 1.1 81 1.2 ENE 9 11 5 6 1017.7 1018.2 0.0
21/07:00am 4.3 0.7 0.6 77 1.4 ENE 9 11 5 6 1017.6 1018.1 0.0
21/06:30am 4.9 -0.1 1.4 78 1.4 NNE 17 19 9 10 1017.2 1017.7 0.0
21/06:00am 4.1 -0.5 1.6 84 1.0 N 15 17 8 9 1017.1 1017.6 0.0
21/05:30am 3.6 -0.7 1.3 85 0.9 N 13 15 7 8 1016.6 1017.1 0.0
21/05:00am 4.5 -0.1 1.5 81 1.2 NNE 15 20 8 11 1016.4 1016.9 0.0
21/04:30am 5.0 0.2 2.5 84 1.0 NNE 17 20 9 11 1016.4 1016.9 0.0
21/04:00am 4.9 0.7 3.7 92 0.5 NE 15 19 8 10 1016.7 1017.2 0.0
21/03:30am 1.6 -1.9 1.5 99 0.0 ENE 9 13 5 7 1017.0 1017.5 0.0
21/03:00am 0.6 -2.6 0.5 99 0.0 ENE 7 11 4 6 1017.3 1017.8 0.0
21/02:30am 1.6 -0.9 1.5 99 0.0 E 4 6 2 3 1017.6 1018.1 0.0
21/02:00am 1.0 -0.9 0.7 98 0.1 CALM 0 2 0 1 1017.8 1018.3 0.0
21/01:30am 2.4 -1.0 2.1 98 0.1 ENE 9 11 5 6 1017.6 1018.1 0.0
21/01:00am 2.6 -0.4 2.2 97 0.2 ENE 7 9 4 5 1017.9 1018.4 0.0
21/12:30am 3.5 0.7 3.1 97 0.2 E 7 7 4 4 1018.2 1018.8 0.0
21/12:00am 3.2 1.6 2.2 93 0.4 CALM 0 0 0 0 1018.3 1018.9 0.0
 
Date/Time
EST
Temp
°C
App
Temp
°C
Dew
Point
°C
Rel
Hum
%
Delta-T
°C
Wind Press
QNH
hPa
Press
MSL
hPa
Rain since
9am
mm
Dir  Spd
km/h
Gust
km/h
Spd
kts
Gust
kts
20/11:30pm 6.5 3.1 6.1 97 0.2 ENE 13 17 7 9 1018.1 1018.6 0.0
20/11:00pm 4.8 1.9 4.7 99 0.0 ENE 9 11 5 6 1018.6 1019.1 0.0
20/10:30pm 4.0 1.0 3.9 99 0.0 ENE 9 11 5 6 1018.8 1019.3 0.0
20/10:00pm 2.2 0.5 1.9 98 0.1 CALM 0 4 0 2 1019.3 1019.8 0.0
20/09:30pm 3.5 0.7 3.2 98 0.1 NE 7 9 4 5 1019.3 1019.8 0.0
20/09:00pm 2.8 0.0 1.8 93 0.4 ENE 6 7 3 4 1019.5 1020.0 0.0
20/08:30pm 4.4 2.2 3.4 93 0.4 ENE 4 7 2 4 1019.6 1020.1 0.0
20/08:00pm 5.2 3.9 4.2 93 0.4 CALM 0 4 0 2 1019.8 1020.3 0.0
20/07:30pm 5.6 4.3 3.9 89 0.7 CALM 0 2 0 1 1019.8 1020.3 0.0
20/07:00pm 7.4 5.4 4.5 82 1.3 E 4 7 2 4 1019.8 1020.3 0.0
20/06:30pm 9.2 6.4 5.2 76 1.8 E 9 9 5 5 1019.6 1020.1 0.0
20/06:00pm 10.3 7.6 5.7 73 2.1 E 9 9 5 5 1019.5 1020.0 0.0
20/05:30pm 11.7 9.5 6.0 68 2.7 E 7 9 4 5 1019.4 1019.9 0.0
20/05:00pm 13.4 10.8 6.3 62 3.4 E 9 13 5 7 1019.6 1020.1 0.0
20/04:30pm 14.1 10.8 6.5 60 3.7 NE 13 17 7 9 1019.8 1020.3 0.0
20/04:00pm 14.6 11.7 6.4 58 4.0 NE 11 13 6 7 1020.1 1020.6 0.0
20/03:30pm 14.9 12.1 7.0 59 3.9 NE 11 19 6 10 1020.2 1020.7 0.0
20/03:00pm 15.2 13.3 6.5 56 4.3 NNE 6 9 3 5 1020.3 1020.8 0.0
20/02:30pm 15.2 12.7 6.5 56 4.3 NNW 9 13 5 7 1020.6 1021.1 0.0
20/02:00pm 15.2 12.7 6.7 57 4.2 NNE 9 11 5 6 1020.8 1021.3 0.0
20/01:30pm 14.7 12.6 6.8 59 3.9 ENE 7 13 4 7 1021.1 1021.6 0.0
20/01:00pm 14.2 11.9 7.3 63 3.4 N 9 17 5 9 1021.6 1022.2 0.0
20/12:30pm 13.9 11.8 6.7 62 3.5 NNE 7 11 4 6 1021.9 1022.5 0.0
20/12:00pm 13.5 11.7 8.1 70 2.7 N 7 13 4 7 1022.8 1023.3 0.0
20/11:30am 12.4 11.1 7.7 73 2.3 N 4 11 2 6 1023.3 1023.8 0.0
20/11:00am 11.4 9.1 7.5 77 1.9 ENE 9 11 5 6 1023.8 1024.3 0.0
20/10:30am 10.5 8.3 7.7 83 1.4 NE 9 13 5 7 1024.1 1024.6 0.0
20/10:00am 8.8 6.6 7.7 93 0.5 NE 9 11 5 6 1024.2 1024.8 0.0
20/09:30am 6.8 4.7 6.8 100 0.0 NE 7 9 4 5 1024.2 1024.8 0.0
20/09:00am 3.9 2.6 3.9 100 0.0 CALM 0 0 0 0 1024.3 1024.9 0.0
20/08:30am 2.2 0.5 2.1 99 0.0 CALM 0 0 0 0 1024.2 1024.8 0.0
20/08:00am 0.6 -1.7 0.5 99 0.0 S 2 6 1 3 1024.1 1024.6 0.0
20/07:30am 0.3 -2.8 0.2 99 0.0 S 6 7 3 4 1024.1 1024.6 0.0
20/07:00am 0.3 -2.8 0.2 99 0.0 S 6 7 3 4 1024.1 1024.6 0.0
20/06:30am 0.3 -2.8 0.2 99 0.0 S 6 7 3 4 1023.8 1024.3 0.0
20/06:00am 0.0 -2.4 -0.1 99 0.0 SSW 2 6 1 3 1023.8 1024.3 0.0
20/05:30am 0.1 -1.9 0.0 99 0.0 CALM 0 0 0 0 1023.4 1023.9 0.0
20/05:00am -0.2 -2.2 -0.3 99 0.0 CALM 0 0 0 0 1023.4 1023.9 0.0
20/04:30am -0.1 -2.1 -0.2 99 0.0 CALM 0 0 0 0 1023.3 1023.8 0.0
20/04:00am 0.2 -2.9 0.1 99 0.0 S 6 6 3 3 1023.5 1024.0 0.0
20/03:30am 0.9 -2.1 0.8 99 0.0 S 6 7 3 4 1023.9 1024.4 0.0
20/03:00am 1.1 -2.1 1.0 99 0.0 S 7 7 4 4 1024.1 1024.6 0.0
20/02:30am 1.3 -1.6 1.2 99 0.0 SSW 6 7 3 4 1024.4 1025.0 0.0
20/02:00am 1.1 -1.5 1.0 99 0.0 SE 4 6 2 3 1024.0 1024.5 0.0
20/01:30am 2.3 -1.0 2.2 99 0.0 S 9 9 5 5 1023.9 1024.4 0.0
20/01:00am 1.6 -0.2 1.5 99 0.0 CALM 0 0 0 0 1024.0 1024.5 0.0
20/12:30am 2.2 0.5 2.1 99 0.0 CALM 0 0 0 0 1023.9 1024.4 0.0
20/12:00am 2.9 1.3 2.6 98 0.1 CALM 0 0 0 0 1023.8 1024.3 0.0
 
Date/Time
EST
Temp
°C
App
Temp
°C
Dew
Point
°C
Rel
Hum
%
Delta-T
°C
Wind Press
QNH
hPa
Press
MSL
hPa
Rain since
9am
mm
Dir  Spd
km/h
Gust
km/h
Spd
kts
Gust
kts
19/11:30pm 3.6 1.0 3.3 98 0.1 S 6 7 3 4 1023.9 1024.4 0.0
19/11:00pm 4.3 2.2 3.9 97 0.2 S 4 9 2 5 1024.2 1024.8 0.0
19/10:30pm 5.6 4.5 5.3 98 0.1 CALM 0 0 0 0 1024.5 1025.1 0.0
19/10:00pm 5.3 3.0 4.6 95 0.3 W 6 7 3 4 1024.4 1025.0 0.0
19/09:30pm 7.4 6.5 5.9 90 0.7 CALM 0 0 0 0 1024.0 1024.5 0.0
19/09:00pm 8.9 6.9 6.2 83 1.3 ESE 6 6 3 3 1024.0 1024.5 0.0
19/08:30pm 9.8 8.1 7.6 86 1.1 NNE 6 7 3 4 1024.0 1024.5 0.0
19/08:00pm 11.4 9.3 8.3 81 1.5 SSE 9 15 5 8 1023.8 1024.3 0.0
19/07:30pm 11.4 8.5 8.3 81 1.5 SSE 13 17 7 9 1023.7 1024.2 0.0
19/07:00pm 10.8 8.9 7.7 81 1.5 SW 7 11 4 6 1023.5 1024.0 0.0
19/06:30pm 11.0 10.0 7.3 78 1.8 SSW 2 7 1 4 1023.3 1023.8 0.0
19/06:00pm 11.2 9.3 6.9 75 2.1 SSW 6 7 3 4 1023.1 1023.6 0.0
19/05:30pm 11.6 9.7 6.5 71 2.4 SW 6 9 3 5 1022.8 1023.3 0.0
19/05:00pm 13.0 10.8 6.4 64 3.2 WSW 7 9 4 5 1022.5 1023.0 0.0
19/04:30pm 14.5 12.1 6.8 60 3.8 W 9 11 5 6 1022.3 1022.8 0.0
19/04:00pm 15.4 13.9 6.9 57 4.2 WSW 4 7 2 4 1022.3 1022.8 0.0
19/03:30pm 14.3 12.2 6.6 60 3.8 W 7 11 4 6 1022.3 1022.8 0.0
19/03:00pm 14.7 12.4 7.3 61 3.7 W 9 13 5 7 1022.1 1022.7 0.0
19/02:30pm 15.4 12.6 6.9 57 4.2 WNW 11 15 6 8 1022.0 1022.6 0.0
19/02:00pm 15.4 12.1 7.9 61 3.8 WNW 15 22 8 12 1021.9 1022.5 0.0
19/01:30pm 14.3 11.5 7.1 62 3.6 WNW 11 17 6 9 1022.1 1022.7 0.0
19/01:00pm 14.1 10.9 6.9 62 3.5 W 13 20 7 11 1022.3 1022.8 0.0
19/12:30pm 13.7 10.1 6.8 63 3.4 WNW 15 19 8 10 1022.4 1022.9 0.0
19/12:00pm 13.1 9.8 6.5 64 3.2 WNW 13 20 7 11 1022.8 1023.3 0.0
19/11:30am 13.0 10.4 7.7 70 2.6 NW 11 17 6 9 1023.3 1023.8 0.0
19/11:00am 11.4 8.6 7.1 75 2.1 N 11 15 6 8 1023.8 1024.3 0.0
19/10:30am 9.7 7.1 6.1 78 1.7 N 9 13 5 7 1023.8 1024.3 0.0
19/10:00am 8.1 5.7 5.2 82 1.3 NNE 7 11 4 6 1023.8 1024.3 0.0
19/09:30am 6.7 4.5 5.5 92 0.5 NNE 6 7 3 4 1023.6 1024.1 0.0
19/09:00am 4.6 3.4 4.5 99 0.0 CALM 0 0 0 0 1023.2 1023.7 0.0
19/08:30am 3.7 1.9 3.6 99 0.0 NE 2 6 1 3 1023.1 1023.6 0.0
19/08:00am 2.8 1.2 2.7 99 0.0 CALM 0 0 0 0 1022.9 1023.4 0.0
19/07:30am 1.8 0.1 1.7 99 0.0 CALM 0 0 0 0 1022.9 1023.4 0.0
19/07:00am 1.2 -0.6 1.1 99 0.0 CALM 0 6 0 3 1022.6 1023.1 0.0
19/06:30am 1.6 -1.3 1.5 99 0.0 NNE 6 7 3 4 1022.1 1022.7 0.0
19/06:00am 1.4 -1.1 1.3 99 0.0 SSE 4 6 2 3 1022.1 1022.7 0.0
19/05:30am 1.1 -1.9 1.0 99 0.0 S 6 6 3 3 1021.7 1022.3 0.0
19/05:00am 0.9 -1.7 0.8 99 0.0 SW 4 9 2 5 1021.6 1022.2 0.0
19/04:30am 1.0 -0.8 0.9 99 0.0 CALM 0 0 0 0 1021.4 1022.0 0.0
19/04:00am 0.7 -1.2 0.6 99 0.0 CALM 0 0 0 0 1021.4 1022.0 0.0
19/03:30am 0.2 -1.8 0.1 99 0.0 CALM 0 0 0 0 1021.6 1022.2 0.0
19/03:00am -0.7 -2.8 -0.8 99 0.0 CALM 0 0 0 0 1021.6 1022.2 0.0
19/02:30am -0.6 -3.8 -0.7 99 0.0 S 6 6 3 3 1021.7 1022.3 0.0
19/02:00am -0.9 -4.2 -1.0 99 0.0 S 6 7 3 4 1021.6 1022.2 0.0
19/01:30am -1.0 -3.1 -1.1 99 0.0 CALM 0 2 0 1 1021.5 1022.1 0.0
19/01:00am -0.4 -2.5 -0.5 99 0.0 CALM 0 0 0 0 1021.2 1021.8 0.0
19/12:30am 0.0 -2.0 -0.1 99 0.0 CALM 0 0 0 0 1021.4 1022.0 0.0
19/12:00am 0.4 -1.5 0.3 99 0.0 CALM 0 0 0 0 1021.5 1022.1 0.0

Other formats

Comma delimited format used in spreadsheet applications
http://www.bom.gov.au/fwo/IDN60801/IDN60801.95722.axf

JavaScript Object Notation format (JSON) in row-major order
http://www.bom.gov.au/fwo/IDN60801/IDN60801.95722.json

Data quality

Most of these data are generated automatically and are frequently updated. Quality checks on data are not normally performed. It is possible for incorrect values to appear. Refer to information at About Latest Weather Observations and please check the disclaimer before using these data.